sensor_id;sensor_type;location;lat;lon;timestamp;temperature;humidity
15700;DHT22;7950;42.744;23.174;2024-03-07T00:02:15;7.90;99.90
15700;DHT22;7950;42.744;23.174;2024-03-07T00:04:46;7.80;99.90
15700;DHT22;7950;42.744;23.174;2024-03-07T00:07:14;7.80;99.90
15700;DHT22;7950;42.744;23.174;2024-03-07T00:09:42;7.80;99.90
15700;DHT22;7950;42.744;23.174;2024-03-07T00:12:11;7.80;99.90
15700;DHT22;7950;42.744;23.174;2024-03-07T00:14:40;7.90;99.90
15700;DHT22;7950;42.744;23.174;2024-03-07T00:17:08;7.90;99.90
15700;DHT22;7950;42.744;23.174;2024-03-07T00:19:36;7.90;99.90
15700;DHT22;7950;42.744;23.174;2024-03-07T00:22:07;7.80;99.90
15700;DHT22;7950;42.744;23.174;2024-03-07T00:24:36;7.70;99.90
15700;DHT22;7950;42.744;23.174;2024-03-07T00:27:05;7.60;99.90
15700;DHT22;7950;42.744;23.174;2024-03-07T00:29:34;7.60;99.90
15700;DHT22;7950;42.744;23.174;2024-03-07T00:32:05;7.60;99.90
15700;DHT22;7950;42.744;23.174;2024-03-07T00:34:33;7.60;99.90
15700;DHT22;7950;42.744;23.174;2024-03-07T00:37:01;7.50;99.90
15700;DHT22;7950;42.744;23.174;2024-03-07T00:39:31;7.50;99.90
15700;DHT22;7950;42.744;23.174;2024-03-07T00:42:00;7.50;99.90
15700;DHT22;7950;42.744;23.174;2024-03-07T00:44:29;7.50;99.90
15700;DHT22;7950;42.744;23.174;2024-03-07T00:46:58;7.40;99.90
15700;DHT22;7950;42.744;23.174;2024-03-07T00:49:26;7.40;99.90
15700;DHT22;7950;42.744;23.174;2024-03-07T00:51:55;7.40;99.90
15700;DHT22;7950;42.744;23.174;2024-03-07T00:54:23;7.40;99.90
15700;DHT22;7950;42.744;23.174;2024-03-07T00:56:53;7.50;99.90
15700;DHT22;7950;42.744;23.174;2024-03-07T00:59:22;7.50;99.90
15700;DHT22;7950;42.744;23.174;2024-03-07T01:01:50;7.50;99.90
15700;DHT22;7950;42.744;23.174;2024-03-07T01:04:19;7.50;99.90
15700;DHT22;7950;42.744;23.174;2024-03-07T01:06:47;7.40;99.90
15700;DHT22;7950;42.744;23.174;2024-03-07T01:09:15;7.40;99.90
15700;DHT22;7950;42.744;23.174;2024-03-07T01:11:46;7.40;99.90
15700;DHT22;7950;42.744;23.174;2024-03-07T01:14:16;7.40;99.90
15700;DHT22;7950;42.744;23.174;2024-03-07T01:16:44;7.40;99.90
15700;DHT22;7950;42.744;23.174;2024-03-07T01:19:14;7.40;99.90
15700;DHT22;7950;42.744;23.174;2024-03-07T01:21:42;7.40;99.90
15700;DHT22;7950;42.744;23.174;2024-03-07T01:24:10;7.40;99.90
15700;DHT22;7950;42.744;23.174;2024-03-07T01:26:45;7.40;99.90
15700;DHT22;7950;42.744;23.174;2024-03-07T01:29:15;7.30;99.90
15700;DHT22;7950;42.744;23.174;2024-03-07T01:31:44;7.40;99.90
15700;DHT22;7950;42.744;23.174;2024-03-07T01:34:12;7.40;99.90
15700;DHT22;7950;42.744;23.174;2024-03-07T01:36:41;7.50;99.90
15700;DHT22;7950;42.744;23.174;2024-03-07T01:39:09;7.50;99.90
15700;DHT22;7950;42.744;23.174;2024-03-07T01:41:38;7.50;99.90
15700;DHT22;7950;42.744;23.174;2024-03-07T01:44:07;7.60;99.90
15700;DHT22;7950;42.744;23.174;2024-03-07T01:46:37;7.60;99.90
15700;DHT22;7950;42.744;23.174;2024-03-07T01:49:05;7.60;99.90
15700;DHT22;7950;42.744;23.174;2024-03-07T01:51:35;7.60;99.90
15700;DHT22;7950;42.744;23.174;2024-03-07T01:54:05;7.50;99.90
15700;DHT22;7950;42.744;23.174;2024-03-07T01:56:36;7.50;99.90
15700;DHT22;7950;42.744;23.174;2024-03-07T01:59:05;7.50;99.90
15700;DHT22;7950;42.744;23.174;2024-03-07T02:01:36;7.50;99.90
15700;DHT22;7950;42.744;23.174;2024-03-07T02:04:06;7.60;99.90
15700;DHT22;7950;42.744;23.174;2024-03-07T02:06:35;7.60;99.90
15700;DHT22;7950;42.744;23.174;2024-03-07T02:09:03;7.60;99.90
15700;DHT22;7950;42.744;23.174;2024-03-07T02:11:32;7.60;99.90
15700;DHT22;7950;42.744;23.174;2024-03-07T02:14:01;7.60;99.90
15700;DHT22;7950;42.744;23.174;2024-03-07T02:16:30;7.60;99.90
15700;DHT22;7950;42.744;23.174;2024-03-07T02:19:00;7.70;99.90
15700;DHT22;7950;42.744;23.174;2024-03-07T02:21:30;7.60;99.90
15700;DHT22;7950;42.744;23.174;2024-03-07T02:23:59;7.60;99.90
15700;DHT22;7950;42.744;23.174;2024-03-07T02:26:28;7.60;99.90
15700;DHT22;7950;42.744;23.174;2024-03-07T02:28:56;7.70;99.90
15700;DHT22;7950;42.744;23.174;2024-03-07T02:31:25;7.60;99.90
15700;DHT22;7950;42.744;23.174;2024-03-07T02:34:02;7.50;99.90
15700;DHT22;7950;42.744;23.174;2024-03-07T02:36:32;7.50;99.90
15700;DHT22;7950;42.744;23.174;2024-03-07T02:39:01;7.50;99.90
15700;DHT22;7950;42.744;23.174;2024-03-07T02:41:30;7.50;99.90
15700;DHT22;7950;42.744;23.174;2024-03-07T02:43:59;7.40;99.90
15700;DHT22;7950;42.744;23.174;2024-03-07T02:46:28;7.40;99.90
15700;DHT22;7950;42.744;23.174;2024-03-07T02:48:58;7.40;99.90
15700;DHT22;7950;42.744;23.174;2024-03-07T02:51:27;7.40;99.90
15700;DHT22;7950;42.744;23.174;2024-03-07T02:53:58;7.30;99.90
15700;DHT22;7950;42.744;23.174;2024-03-07T02:56:26;7.20;99.90
15700;DHT22;7950;42.744;23.174;2024-03-07T02:58:55;7.10;99.90
15700;DHT22;7950;42.744;23.174;2024-03-07T03:01:28;7.10;99.90
15700;DHT22;7950;42.744;23.174;2024-03-07T03:03:57;7.10;99.90
15700;DHT22;7950;42.744;23.174;2024-03-07T03:06:26;7.10;99.90
15700;DHT22;7950;42.744;23.174;2024-03-07T03:08:54;7.10;99.90
15700;DHT22;7950;42.744;23.174;2024-03-07T03:11:24;7.10;99.90
15700;DHT22;7950;42.744;23.174;2024-03-07T03:13:54;7.10;99.90
15700;DHT22;7950;42.744;23.174;2024-03-07T03:16:23;7.00;99.90
15700;DHT22;7950;42.744;23.174;2024-03-07T03:19:12;7.00;99.90
15700;DHT22;7950;42.744;23.174;2024-03-07T03:21:40;7.00;99.90
15700;DHT22;7950;42.744;23.174;2024-03-07T03:24:10;7.00;99.90
15700;DHT22;7950;42.744;23.174;2024-03-07T03:26:39;7.00;99.90
15700;DHT22;7950;42.744;23.174;2024-03-07T03:29:09;7.10;99.90
15700;DHT22;7950;42.744;23.174;2024-03-07T03:31:39;7.00;99.90
15700;DHT22;7950;42.744;23.174;2024-03-07T03:34:07;7.00;99.90
15700;DHT22;7950;42.744;23.174;2024-03-07T03:36:37;7.00;99.90
15700;DHT22;7950;42.744;23.174;2024-03-07T03:39:06;7.00;99.90
15700;DHT22;7950;42.744;23.174;2024-03-07T03:41:39;6.90;99.90
15700;DHT22;7950;42.744;23.174;2024-03-07T03:44:08;6.90;99.90
15700;DHT22;7950;42.744;23.174;2024-03-07T03:46:36;6.90;99.90
15700;DHT22;7950;42.744;23.174;2024-03-07T03:49:05;6.90;99.90
15700;DHT22;7950;42.744;23.174;2024-03-07T03:51:34;6.80;99.90
15700;DHT22;7950;42.744;23.174;2024-03-07T03:54:03;6.90;99.90
15700;DHT22;7950;42.744;23.174;2024-03-07T03:56:32;6.90;99.90
15700;DHT22;7950;42.744;23.174;2024-03-07T03:59:02;7.00;99.90
15700;DHT22;7950;42.744;23.174;2024-03-07T04:01:31;7.10;99.90
15700;DHT22;7950;42.744;23.174;2024-03-07T04:04:00;7.10;99.90
15700;DHT22;7950;42.744;23.174;2024-03-07T04:06:29;7.10;99.90
15700;DHT22;7950;42.744;23.174;2024-03-07T04:08:59;6.90;99.90
15700;DHT22;7950;42.744;23.174;2024-03-07T04:11:27;6.90;99.90
15700;DHT22;7950;42.744;23.174;2024-03-07T04:13:56;6.90;99.90
15700;DHT22;7950;42.744;23.174;2024-03-07T04:16:26;6.80;99.90
15700;DHT22;7950;42.744;23.174;2024-03-07T04:18:54;6.80;99.90
15700;DHT22;7950;42.744;23.174;2024-03-07T04:21:23;6.70;99.90
15700;DHT22;7950;42.744;23.174;2024-03-07T04:23:52;6.70;99.90
15700;DHT22;7950;42.744;23.174;2024-03-07T04:26:21;6.60;99.90
15700;DHT22;7950;42.744;23.174;2024-03-07T04:28:49;6.60;99.90
15700;DHT22;7950;42.744;23.174;2024-03-07T04:31:18;6.50;99.90
15700;DHT22;7950;42.744;23.174;2024-03-07T04:33:48;6.40;99.90
15700;DHT22;7950;42.744;23.174;2024-03-07T04:36:18;6.40;99.90
15700;DHT22;7950;42.744;23.174;2024-03-07T04:38:46;6.30;99.90
15700;DHT22;7950;42.744;23.174;2024-03-07T04:41:15;6.30;99.90
15700;DHT22;7950;42.744;23.174;2024-03-07T04:43:43;6.30;99.90
15700;DHT22;7950;42.744;23.174;2024-03-07T04:46:12;6.20;99.90
15700;DHT22;7950;42.744;23.174;2024-03-07T04:48:40;6.30;99.90
15700;DHT22;7950;42.744;23.174;2024-03-07T04:51:10;6.30;99.90
15700;DHT22;7950;42.744;23.174;2024-03-07T04:53:40;6.30;99.90
15700;DHT22;7950;42.744;23.174;2024-03-07T04:56:09;6.30;99.90
15700;DHT22;7950;42.744;23.174;2024-03-07T04:58:38;6.30;99.90
15700;DHT22;7950;42.744;23.174;2024-03-07T05:01:06;6.30;99.90
15700;DHT22;7950;42.744;23.174;2024-03-07T05:03:35;6.40;99.90
15700;DHT22;7950;42.744;23.174;2024-03-07T05:06:03;6.40;99.90
15700;DHT22;7950;42.744;23.174;2024-03-07T05:08:34;6.30;99.90
15700;DHT22;7950;42.744;23.174;2024-03-07T05:11:03;6.30;99.90
15700;DHT22;7950;42.744;23.174;2024-03-07T05:13:32;6.30;99.90
15700;DHT22;7950;42.744;23.174;2024-03-07T05:16:00;6.40;99.90
15700;DHT22;7950;42.744;23.174;2024-03-07T05:18:30;6.40;99.90
15700;DHT22;7950;42.744;23.174;2024-03-07T05:20:59;6.40;99.90
15700;DHT22;7950;42.744;23.174;2024-03-07T05:23:49;6.40;99.90
15700;DHT22;7950;42.744;23.174;2024-03-07T05:26:19;6.40;99.90
15700;DHT22;7950;42.744;23.174;2024-03-07T05:28:46;6.30;99.90
15700;DHT22;7950;42.744;23.174;2024-03-07T05:31:15;6.30;99.90
15700;DHT22;7950;42.744;23.174;2024-03-07T05:33:47;6.20;99.90
15700;DHT22;7950;42.744;23.174;2024-03-07T05:36:15;6.10;99.90
15700;DHT22;7950;42.744;23.174;2024-03-07T05:38:44;6.00;99.90
15700;DHT22;7950;42.744;23.174;2024-03-07T05:41:15;6.00;99.90
15700;DHT22;7950;42.744;23.174;2024-03-07T05:43:43;6.00;99.90
15700;DHT22;7950;42.744;23.174;2024-03-07T05:46:12;5.90;99.90
15700;DHT22;7950;42.744;23.174;2024-03-07T05:48:41;5.90;99.90
15700;DHT22;7950;42.744;23.174;2024-03-07T05:51:09;5.80;99.90
15700;DHT22;7950;42.744;23.174;2024-03-07T05:53:38;5.80;99.90
15700;DHT22;7950;42.744;23.174;2024-03-07T05:56:07;5.70;99.90
15700;DHT22;7950;42.744;23.174;2024-03-07T05:58:38;5.80;99.90
15700;DHT22;7950;42.744;23.174;2024-03-07T06:01:06;5.70;99.90
15700;DHT22;7950;42.744;23.174;2024-03-07T06:03:36;5.60;99.90
15700;DHT22;7950;42.744;23.174;2024-03-07T06:06:06;5.60;99.90
15700;DHT22;7950;42.744;23.174;2024-03-07T06:08:38;5.60;99.90
15700;DHT22;7950;42.744;23.174;2024-03-07T06:11:09;5.50;99.90
15700;DHT22;7950;42.744;23.174;2024-03-07T06:13:39;5.60;99.90
15700;DHT22;7950;42.744;23.174;2024-03-07T06:16:07;5.50;99.90
15700;DHT22;7950;42.744;23.174;2024-03-07T06:18:36;5.60;99.90
15700;DHT22;7950;42.744;23.174;2024-03-07T06:21:05;5.70;99.90
15700;DHT22;7950;42.744;23.174;2024-03-07T06:23:33;5.80;99.90
15700;DHT22;7950;42.744;23.174;2024-03-07T06:26:02;5.80;99.90
15700;DHT22;7950;42.744;23.174;2024-03-07T06:28:41;5.80;99.90
15700;DHT22;7950;42.744;23.174;2024-03-07T06:31:09;5.80;99.90
15700;DHT22;7950;42.744;23.174;2024-03-07T06:33:38;5.80;99.90
15700;DHT22;7950;42.744;23.174;2024-03-07T06:36:07;5.90;99.90
15700;DHT22;7950;42.744;23.174;2024-03-07T06:38:36;6.00;99.90
15700;DHT22;7950;42.744;23.174;2024-03-07T06:41:05;6.00;99.90
15700;DHT22;7950;42.744;23.174;2024-03-07T06:43:35;6.20;99.90
15700;DHT22;7950;42.744;23.174;2024-03-07T06:46:05;6.10;99.90
15700;DHT22;7950;42.744;23.174;2024-03-07T06:48:36;6.10;99.90
15700;DHT22;7950;42.744;23.174;2024-03-07T06:51:05;6.10;99.90
15700;DHT22;7950;42.744;23.174;2024-03-07T06:53:34;6.10;99.90
15700;DHT22;7950;42.744;23.174;2024-03-07T06:56:03;6.10;99.90
15700;DHT22;7950;42.744;23.174;2024-03-07T06:58:33;6.10;99.90
15700;DHT22;7950;42.744;23.174;2024-03-07T07:01:02;6.20;99.90
15700;DHT22;7950;42.744;23.174;2024-03-07T07:03:35;6.10;99.90
15700;DHT22;7950;42.744;23.174;2024-03-07T07:06:05;6.20;99.90
15700;DHT22;7950;42.744;23.174;2024-03-07T07:08:34;6.20;99.90
15700;DHT22;7950;42.744;23.174;2024-03-07T07:11:03;6.30;99.90
15700;DHT22;7950;42.744;23.174;2024-03-07T07:13:32;6.30;99.90
15700;DHT22;7950;42.744;23.174;2024-03-07T07:16:01;6.30;99.90
15700;DHT22;7950;42.744;23.174;2024-03-07T07:18:29;6.30;99.90
15700;DHT22;7950;42.744;23.174;2024-03-07T07:20:59;6.30;99.90
15700;DHT22;7950;42.744;23.174;2024-03-07T07:23:30;6.30;99.90
15700;DHT22;7950;42.744;23.174;2024-03-07T07:25:59;6.20;99.90
15700;DHT22;7950;42.744;23.174;2024-03-07T07:28:28;6.30;99.90
15700;DHT22;7950;42.744;23.174;2024-03-07T07:30:56;6.30;99.90
15700;DHT22;7950;42.744;23.174;2024-03-07T07:33:25;6.30;99.90
15700;DHT22;7950;42.744;23.174;2024-03-07T07:35:53;6.40;99.90
15700;DHT22;7950;42.744;23.174;2024-03-07T07:38:23;6.50;99.90
15700;DHT22;7950;42.744;23.174;2024-03-07T07:40:53;6.40;99.90
15700;DHT22;7950;42.744;23.174;2024-03-07T07:43:22;6.40;99.90
15700;DHT22;7950;42.744;23.174;2024-03-07T07:46:03;6.40;99.90
15700;DHT22;7950;42.744;23.174;2024-03-07T07:48:32;6.40;99.90
15700;DHT22;7950;42.744;23.174;2024-03-07T07:51:01;6.30;99.90
15700;DHT22;7950;42.744;23.174;2024-03-07T07:53:35;6.30;99.90
15700;DHT22;7950;42.744;23.174;2024-03-07T07:56:04;6.40;99.90
15700;DHT22;7950;42.744;23.174;2024-03-07T07:58:33;6.30;99.90
15700;DHT22;7950;42.744;23.174;2024-03-07T08:01:01;6.30;99.90
15700;DHT22;7950;42.744;23.174;2024-03-07T08:03:31;6.30;99.90
15700;DHT22;7950;42.744;23.174;2024-03-07T08:06:00;6.30;99.90
15700;DHT22;7950;42.744;23.174;2024-03-07T08:08:29;6.40;99.90
15700;DHT22;7950;42.744;23.174;2024-03-07T08:10:59;6.40;99.90
15700;DHT22;7950;42.744;23.174;2024-03-07T08:13:28;6.40;99.90
15700;DHT22;7950;42.744;23.174;2024-03-07T08:15:56;6.50;99.90
15700;DHT22;7950;42.744;23.174;2024-03-07T08:18:26;6.50;99.90
15700;DHT22;7950;42.744;23.174;2024-03-07T08:20:55;6.60;99.90
15700;DHT22;7950;42.744;23.174;2024-03-07T08:23:23;6.70;99.90
15700;DHT22;7950;42.744;23.174;2024-03-07T08:25:53;6.80;99.90
15700;DHT22;7950;42.744;23.174;2024-03-07T08:28:23;6.80;99.90
15700;DHT22;7950;42.744;23.174;2024-03-07T08:30:52;6.90;99.90
15700;DHT22;7950;42.744;23.174;2024-03-07T08:33:22;6.90;99.90
15700;DHT22;7950;42.744;23.174;2024-03-07T08:35:50;7.00;99.90
15700;DHT22;7950;42.744;23.174;2024-03-07T08:38:20;7.10;99.90
15700;DHT22;7950;42.744;23.174;2024-03-07T08:40:48;7.20;99.90
15700;DHT22;7950;42.744;23.174;2024-03-07T08:43:17;7.30;99.90
15700;DHT22;7950;42.744;23.174;2024-03-07T08:45:46;7.40;99.90
15700;DHT22;7950;42.744;23.174;2024-03-07T08:48:14;7.60;99.90
15700;DHT22;7950;42.744;23.174;2024-03-07T08:50:43;7.60;99.90
15700;DHT22;7950;42.744;23.174;2024-03-07T08:53:12;7.70;99.90
15700;DHT22;7950;42.744;23.174;2024-03-07T08:55:40;7.80;99.90
15700;DHT22;7950;42.744;23.174;2024-03-07T08:58:09;7.80;99.90
15700;DHT22;7950;42.744;23.174;2024-03-07T09:00:38;7.80;99.90
15700;DHT22;7950;42.744;23.174;2024-03-07T09:03:08;7.80;99.90
15700;DHT22;7950;42.744;23.174;2024-03-07T09:05:39;7.80;99.90
15700;DHT22;7950;42.744;23.174;2024-03-07T09:08:09;7.80;99.90
15700;DHT22;7950;42.744;23.174;2024-03-07T09:10:38;7.90;99.90
15700;DHT22;7950;42.744;23.174;2024-03-07T09:13:11;7.80;99.90
15700;DHT22;7950;42.744;23.174;2024-03-07T09:15:39;7.80;99.90
15700;DHT22;7950;42.744;23.174;2024-03-07T09:18:09;7.90;99.90
15700;DHT22;7950;42.744;23.174;2024-03-07T09:20:37;8.00;99.90
15700;DHT22;7950;42.744;23.174;2024-03-07T09:23:06;8.00;99.90
15700;DHT22;7950;42.744;23.174;2024-03-07T09:25:34;8.00;99.90
15700;DHT22;7950;42.744;23.174;2024-03-07T09:28:03;8.00;99.90
15700;DHT22;7950;42.744;23.174;2024-03-07T09:30:33;8.00;99.90
15700;DHT22;7950;42.744;23.174;2024-03-07T09:33:06;8.00;99.90
15700;DHT22;7950;42.744;23.174;2024-03-07T09:35:40;8.10;99.90
15700;DHT22;7950;42.744;23.174;2024-03-07T09:38:08;8.10;99.90
15700;DHT22;7950;42.744;23.174;2024-03-07T09:40:38;8.10;99.90
15700;DHT22;7950;42.744;23.174;2024-03-07T09:43:07;8.30;99.90
15700;DHT22;7950;42.744;23.174;2024-03-07T09:45:38;8.20;99.90
15700;DHT22;7950;42.744;23.174;2024-03-07T09:48:14;8.20;99.90
15700;DHT22;7950;42.744;23.174;2024-03-07T09:50:46;8.30;99.90
15700;DHT22;7950;42.744;23.174;2024-03-07T09:53:19;8.20;99.90
15700;DHT22;7950;42.744;23.174;2024-03-07T09:55:48;8.10;99.90
15700;DHT22;7950;42.744;23.174;2024-03-07T09:58:18;8.00;99.90
15700;DHT22;7950;42.744;23.174;2024-03-07T10:00:48;7.90;99.90
15700;DHT22;7950;42.744;23.174;2024-03-07T10:03:20;7.80;99.90
15700;DHT22;7950;42.744;23.174;2024-03-07T10:05:51;7.90;99.90
15700;DHT22;7950;42.744;23.174;2024-03-07T10:08:21;7.90;99.90
15700;DHT22;7950;42.744;23.174;2024-03-07T10:10:52;8.10;99.90
15700;DHT22;7950;42.744;23.174;2024-03-07T10:13:21;8.10;99.90
15700;DHT22;7950;42.744;23.174;2024-03-07T10:15:49;8.30;99.90
15700;DHT22;7950;42.744;23.174;2024-03-07T10:18:19;8.60;99.90
15700;DHT22;7950;42.744;23.174;2024-03-07T10:20:53;8.70;99.90
15700;DHT22;7950;42.744;23.174;2024-03-07T10:23:22;9.00;99.90
15700;DHT22;7950;42.744;23.174;2024-03-07T10:25:51;9.10;99.90
15700;DHT22;7950;42.744;23.174;2024-03-07T10:28:21;9.30;99.90
15700;DHT22;7950;42.744;23.174;2024-03-07T10:30:50;9.30;99.90
15700;DHT22;7950;42.744;23.174;2024-03-07T10:33:18;9.30;99.90
15700;DHT22;7950;42.744;23.174;2024-03-07T10:35:47;9.30;99.90
15700;DHT22;7950;42.744;23.174;2024-03-07T10:38:18;9.30;99.90
15700;DHT22;7950;42.744;23.174;2024-03-07T10:40:53;9.30;99.90
15700;DHT22;7950;42.744;23.174;2024-03-07T10:43:22;9.30;99.90
15700;DHT22;7950;42.744;23.174;2024-03-07T10:45:53;9.30;99.90
15700;DHT22;7950;42.744;23.174;2024-03-07T10:48:27;9.30;99.90
15700;DHT22;7950;42.744;23.174;2024-03-07T10:51:05;9.30;99.90
15700;DHT22;7950;42.744;23.174;2024-03-07T10:53:49;9.20;99.90
15700;DHT22;7950;42.744;23.174;2024-03-07T10:56:29;9.20;99.90
15700;DHT22;7950;42.744;23.174;2024-03-07T10:59:09;9.20;99.90
15700;DHT22;7950;42.744;23.174;2024-03-07T11:01:47;9.30;99.90
15700;DHT22;7950;42.744;23.174;2024-03-07T11:04:22;9.30;99.90
15700;DHT22;7950;42.744;23.174;2024-03-07T11:06:51;9.30;99.90
15700;DHT22;7950;42.744;23.174;2024-03-07T11:09:22;9.30;99.90
15700;DHT22;7950;42.744;23.174;2024-03-07T11:11:52;9.20;99.90
15700;DHT22;7950;42.744;23.174;2024-03-07T11:14:21;9.10;99.90
15700;DHT22;7950;42.744;23.174;2024-03-07T11:16:50;9.00;99.90
15700;DHT22;7950;42.744;23.174;2024-03-07T11:19:20;9.00;99.90
15700;DHT22;7950;42.744;23.174;2024-03-07T11:21:49;9.00;99.90
15700;DHT22;7950;42.744;23.174;2024-03-07T11:24:26;9.00;99.90
15700;DHT22;7950;42.744;23.174;2024-03-07T11:26:56;9.00;99.90
15700;DHT22;7950;42.744;23.174;2024-03-07T11:29:42;9.00;99.90
15700;DHT22;7950;42.744;23.174;2024-03-07T11:32:12;9.10;99.90
15700;DHT22;7950;42.744;23.174;2024-03-07T11:34:43;9.20;99.90
15700;DHT22;7950;42.744;23.174;2024-03-07T11:37:17;9.20;99.90
15700;DHT22;7950;42.744;23.174;2024-03-07T11:39:51;9.20;99.90
15700;DHT22;7950;42.744;23.174;2024-03-07T11:42:23;9.30;99.90
15700;DHT22;7950;42.744;23.174;2024-03-07T11:44:54;9.20;99.90
15700;DHT22;7950;42.744;23.174;2024-03-07T11:47:25;9.20;99.90
15700;DHT22;7950;42.744;23.174;2024-03-07T11:49:56;9.10;99.90
15700;DHT22;7950;42.744;23.174;2024-03-07T11:52:26;9.10;99.90
15700;DHT22;7950;42.744;23.174;2024-03-07T11:54:57;9.00;99.90
15700;DHT22;7950;42.744;23.174;2024-03-07T11:57:32;9.00;99.90
15700;DHT22;7950;42.744;23.174;2024-03-07T12:00:01;8.90;99.90
15700;DHT22;7950;42.744;23.174;2024-03-07T12:02:36;8.80;99.90
15700;DHT22;7950;42.744;23.174;2024-03-07T12:05:06;8.70;99.90
15700;DHT22;7950;42.744;23.174;2024-03-07T12:07:35;8.70;99.90
15700;DHT22;7950;42.744;23.174;2024-03-07T12:10:08;8.70;99.90
15700;DHT22;7950;42.744;23.174;2024-03-07T12:12:37;8.60;99.90
15700;DHT22;7950;42.744;23.174;2024-03-07T12:15:07;8.60;99.90
15700;DHT22;7950;42.744;23.174;2024-03-07T12:17:45;8.50;99.90
15700;DHT22;7950;42.744;23.174;2024-03-07T12:20:16;8.40;99.90
15700;DHT22;7950;42.744;23.174;2024-03-07T12:22:59;8.40;99.90
15700;DHT22;7950;42.744;23.174;2024-03-07T12:25:32;8.40;99.90
15700;DHT22;7950;42.744;23.174;2024-03-07T12:28:03;8.40;99.90
15700;DHT22;7950;42.744;23.174;2024-03-07T12:30:34;8.40;99.90
15700;DHT22;7950;42.744;23.174;2024-03-07T12:33:05;8.50;99.90
15700;DHT22;7950;42.744;23.174;2024-03-07T12:35:34;8.50;99.90
15700;DHT22;7950;42.744;23.174;2024-03-07T12:38:03;8.50;99.90
15700;DHT22;7950;42.744;23.174;2024-03-07T12:40:33;8.50;99.90
15700;DHT22;7950;42.744;23.174;2024-03-07T12:43:13;8.40;99.90
15700;DHT22;7950;42.744;23.174;2024-03-07T12:45:50;8.30;99.90
15700;DHT22;7950;42.744;23.174;2024-03-07T12:48:21;8.00;99.90
15700;DHT22;7950;42.744;23.174;2024-03-07T12:50:50;7.60;99.90
15700;DHT22;7950;42.744;23.174;2024-03-07T12:53:22;7.40;99.90
15700;DHT22;7950;42.744;23.174;2024-03-07T12:55:54;7.10;99.90
15700;DHT22;7950;42.744;23.174;2024-03-07T12:58:22;6.90;99.90
15700;DHT22;7950;42.744;23.174;2024-03-07T13:00:53;6.80;99.90
15700;DHT22;7950;42.744;23.174;2024-03-07T13:03:23;6.80;99.90
15700;DHT22;7950;42.744;23.174;2024-03-07T13:05:58;6.80;99.90
15700;DHT22;7950;42.744;23.174;2024-03-07T13:08:29;6.80;99.90
15700;DHT22;7950;42.744;23.174;2024-03-07T13:10:59;6.90;99.90
15700;DHT22;7950;42.744;23.174;2024-03-07T13:13:28;6.90;99.90
15700;DHT22;7950;42.744;23.174;2024-03-07T13:15:58;7.00;99.90
15700;DHT22;7950;42.744;23.174;2024-03-07T13:18:26;7.00;99.90
15700;DHT22;7950;42.744;23.174;2024-03-07T13:20:55;7.00;99.90
15700;DHT22;7950;42.744;23.174;2024-03-07T13:23:24;6.90;99.90
15700;DHT22;7950;42.744;23.174;2024-03-07T13:25:55;6.80;99.90
15700;DHT22;7950;42.744;23.174;2024-03-07T13:28:25;6.80;99.90
15700;DHT22;7950;42.744;23.174;2024-03-07T13:30:56;6.70;99.90
15700;DHT22;7950;42.744;23.174;2024-03-07T13:33:25;6.60;99.90
15700;DHT22;7950;42.744;23.174;2024-03-07T13:35:55;6.60;99.90
15700;DHT22;7950;42.744;23.174;2024-03-07T13:38:23;6.60;99.90
15700;DHT22;7950;42.744;23.174;2024-03-07T13:40:53;6.70;99.90
15700;DHT22;7950;42.744;23.174;2024-03-07T13:43:22;6.70;99.90
15700;DHT22;7950;42.744;23.174;2024-03-07T13:45:52;6.70;99.90
15700;DHT22;7950;42.744;23.174;2024-03-07T13:48:20;6.70;99.90
15700;DHT22;7950;42.744;23.174;2024-03-07T13:50:49;6.60;99.90
15700;DHT22;7950;42.744;23.174;2024-03-07T13:53:26;6.60;99.90
15700;DHT22;7950;42.744;23.174;2024-03-07T13:56:28;6.70;99.90
15700;DHT22;7950;42.744;23.174;2024-03-07T13:59:22;6.70;99.90
15700;DHT22;7950;42.744;23.174;2024-03-07T14:02:09;6.70;99.90
15700;DHT22;7950;42.744;23.174;2024-03-07T14:07:53;6.70;99.90
15700;DHT22;7950;42.744;23.174;2024-03-07T14:11:01;6.70;99.90
15700;DHT22;7950;42.744;23.174;2024-03-07T14:13:48;6.80;99.90
15700;DHT22;7950;42.744;23.174;2024-03-07T14:16:55;6.80;99.90
15700;DHT22;7950;42.744;23.174;2024-03-07T14:23:18;6.90;99.90
15700;DHT22;7950;42.744;23.174;2024-03-07T14:25:56;6.80;99.90
15700;DHT22;7950;42.744;23.174;2024-03-07T14:28:53;6.90;99.90
15700;DHT22;7950;42.744;23.174;2024-03-07T14:31:27;6.80;99.90
15700;DHT22;7950;42.744;23.174;2024-03-07T14:34:06;6.70;99.90
15700;DHT22;7950;42.744;23.174;2024-03-07T14:36:38;6.70;99.90
15700;DHT22;7950;42.744;23.174;2024-03-07T14:39:08;6.70;99.90
15700;DHT22;7950;42.744;23.174;2024-03-07T14:41:47;6.70;99.90
15700;DHT22;7950;42.744;23.174;2024-03-07T14:44:18;6.70;99.90
15700;DHT22;7950;42.744;23.174;2024-03-07T14:46:51;6.60;99.90
15700;DHT22;7950;42.744;23.174;2024-03-07T14:49:21;6.60;99.90
15700;DHT22;7950;42.744;23.174;2024-03-07T14:51:50;6.60;99.90
15700;DHT22;7950;42.744;23.174;2024-03-07T14:54:29;6.60;99.90
15700;DHT22;7950;42.744;23.174;2024-03-07T14:56:57;6.60;99.90
15700;DHT22;7950;42.744;23.174;2024-03-07T14:59:26;6.50;99.90
15700;DHT22;7950;42.744;23.174;2024-03-07T15:01:54;6.60;99.90
15700;DHT22;7950;42.744;23.174;2024-03-07T15:04:27;6.60;99.90
15700;DHT22;7950;42.744;23.174;2024-03-07T15:06:59;6.60;99.90
15700;DHT22;7950;42.744;23.174;2024-03-07T15:09:31;6.60;99.90
15700;DHT22;7950;42.744;23.174;2024-03-07T15:12:01;6.70;99.90
15700;DHT22;7950;42.744;23.174;2024-03-07T15:14:31;6.80;99.90
15700;DHT22;7950;42.744;23.174;2024-03-07T15:17:06;6.80;99.90
15700;DHT22;7950;42.744;23.174;2024-03-07T15:19:34;6.80;99.90
15700;DHT22;7950;42.744;23.174;2024-03-07T15:22:03;6.80;99.90
15700;DHT22;7950;42.744;23.174;2024-03-07T15:24:33;6.90;99.90
15700;DHT22;7950;42.744;23.174;2024-03-07T15:27:04;6.90;99.90
15700;DHT22;7950;42.744;23.174;2024-03-07T15:29:33;6.90;99.90
15700;DHT22;7950;42.744;23.174;2024-03-07T15:32:04;6.90;99.90
15700;DHT22;7950;42.744;23.174;2024-03-07T15:34:36;6.90;99.90
15700;DHT22;7950;42.744;23.174;2024-03-07T15:37:05;6.90;99.90
15700;DHT22;7950;42.744;23.174;2024-03-07T15:39:36;7.00;99.90
15700;DHT22;7950;42.744;23.174;2024-03-07T15:42:06;7.00;99.90
15700;DHT22;7950;42.744;23.174;2024-03-07T15:44:37;7.10;99.90
15700;DHT22;7950;42.744;23.174;2024-03-07T15:47:06;7.10;99.90
15700;DHT22;7950;42.744;23.174;2024-03-07T15:49:38;7.00;99.90
15700;DHT22;7950;42.744;23.174;2024-03-07T15:52:08;6.90;99.90
15700;DHT22;7950;42.744;23.174;2024-03-07T15:54:41;6.80;99.90
15700;DHT22;7950;42.744;23.174;2024-03-07T15:57:11;6.70;99.90
15700;DHT22;7950;42.744;23.174;2024-03-07T15:59:42;6.70;99.90
15700;DHT22;7950;42.744;23.174;2024-03-07T16:02:12;6.60;99.90
15700;DHT22;7950;42.744;23.174;2024-03-07T16:04:42;6.50;99.90
15700;DHT22;7950;42.744;23.174;2024-03-07T16:07:10;6.50;99.90
15700;DHT22;7950;42.744;23.174;2024-03-07T16:09:40;6.50;99.90
15700;DHT22;7950;42.744;23.174;2024-03-07T16:12:10;6.50;99.90
15700;DHT22;7950;42.744;23.174;2024-03-07T16:14:39;6.50;99.90